Time;durP1;ratioP1;P1;durP2;ratioP2;P2;SDS_P1;SDS_P2;PMS_P1;PMS_P2;Temp;Humidity;BMP_temperature;BMP_pressure;BME280_temperature;BME280_humidity;BME280_pressure;Samples;Min_cycle;Max_cycle;Signal;HPM_P1;HPM_P2
2023/03/31 00:01:03;;;;;;;8.20;4.60;;;;;;;8.82;38.32;99329.34;6079928;23;19998;-88
2023/03/31 00:03:28;;;;;;;7.28;4.40;;;;;;;8.75;37.64;99330.63;6104021;23;20496;-88
2023/03/31 00:05:57;;;;;;;10.00;4.90;;;;;;;8.74;37.00;99331.72;6104710;23;20005;-88
2023/03/31 00:08:22;;;;;;;6.90;4.40;;;;;;;8.69;37.40;99317.19;6104518;23;19994;-88
2023/03/31 00:10:48;;;;;;;7.30;3.92;;;;;;;8.62;36.49;99321.94;6103678;23;20006;-88
2023/03/31 00:13:14;;;;;;;10.48;4.43;;;;;;;8.62;38.45;99323.84;6104511;23;20488;-88
2023/03/31 00:15:40;;;;;;;11.02;4.00;;;;;;;8.43;39.07;99305.44;6104514;23;20002;-88
2023/03/31 00:18:05;;;;;;;8.00;4.00;;;;;;;8.55;38.88;99317.84;6105192;23;20006;-88
2023/03/31 00:20:36;;;;;;;9.85;4.35;;;;;;;8.52;38.95;99308.44;6104244;23;20063;-89
2023/03/31 00:23:02;;;;;;;9.13;4.50;;;;;;;8.52;38.93;99303.09;6107962;23;20006;-87
2023/03/31 00:25:28;;;;;;;7.50;3.72;;;;;;;8.54;39.25;99302.84;6080753;23;20242;-87
2023/03/31 00:27:53;;;;;;;8.63;4.50;;;;;;;8.46;39.18;99294.19;6080544;23;19998;-87
2023/03/31 00:30:19;;;;;;;8.07;4.20;;;;;;;8.33;39.79;99285.72;6080343;23;20005;-87
2023/03/31 00:32:45;;;;;;;8.13;4.57;;;;;;;8.36;39.60;99290.56;6105183;23;20089;-87
2023/03/31 00:35:10;;;;;;;9.25;4.53;;;;;;;8.33;39.87;99294.59;6080820;23;20010;-88
2023/03/31 00:37:36;;;;;;;7.55;4.53;;;;;;;8.26;40.49;99284.06;6105123;23;20017;-87
2023/03/31 00:40:05;;;;;;;9.88;4.20;;;;;;;8.23;40.35;99289.94;6104410;23;19998;-88
2023/03/31 00:42:30;;;;;;;8.57;4.57;;;;;;;8.19;40.67;99275.41;6081898;23;20345;-87
2023/03/31 00:45:14;;;;;;;9.30;4.32;;;;;;;8.22;41.12;99290.22;6104599;23;20028;-87
2023/03/31 00:47:54;;;;;;;6.65;3.75;;;;;;;8.05;42.11;99277.72;6153349;23;20002;-87
2023/03/31 00:50:32;;;;;;;7.63;4.30;;;;;;;8.00;42.12;99282.22;6103982;23;20022;-88
2023/03/31 00:53:06;;;;;;;10.57;4.93;;;;;;;7.84;42.29;99259.81;6104676;23;20009;-88
2023/03/31 00:55:35;;;;;;;9.18;5.80;;;;;;;7.83;42.40;99264.38;6104308;23;20006;-89
2023/03/31 00:58:03;;;;;;;11.48;5.90;;;;;;;7.71;42.79;99263.69;6104048;23;19996;-87
2023/03/31 01:00:29;;;;;;;10.60;5.82;;;;;;;7.65;42.57;99245.94;6103541;23;20430;-87
2023/03/31 01:03:00;;;;;;;8.10;5.32;;;;;;;7.82;42.66;99265.44;6104304;23;20073;-88
2023/03/31 01:05:46;;;;;;;10.52;5.30;;;;;;;7.77;42.35;99246.63;6104239;23;20006;-87
2023/03/31 01:08:11;;;;;;;9.13;5.07;;;;;;;7.85;42.34;99261.44;6106053;23;20017;-87
2023/03/31 01:10:40;;;;;;;10.43;4.53;;;;;;;7.86;42.35;99258.50;6079205;23;20002;-87
2023/03/31 01:13:07;;;;;;;6.72;3.92;;;;;;;7.83;41.99;99255.53;6104477;23;20001;-87
2023/03/31 01:15:33;;;;;;;8.38;4.13;;;;;;;7.83;43.12;99258.19;6103855;23;20002;-88
2023/03/31 01:17:59;;;;;;;8.07;4.28;;;;;;;7.76;42.49;99247.69;6103382;23;20010;-87
2023/03/31 01:20:34;;;;;;;9.70;4.63;;;;;;;7.81;42.92;99250.41;6081042;23;20002;-88
2023/03/31 01:23:32;;;;;;;5.63;3.65;;;;;;;7.89;42.10;99249.16;6128475;23;20010;-88
2023/03/31 01:26:20;;;;;;;5.97;3.28;;;;;;;8.01;41.19;99252.47;6109168;23;20064;-88
2023/03/31 01:29:27;;;;;;;10.82;4.53;;;;;;;7.94;42.55;99243.00;6128286;23;19998;-87
2023/03/31 01:32:23;;;;;;;5.78;3.70;;;;;;;7.84;44.28;99244.56;6109440;23;20525;-88
2023/03/31 01:35:10;;;;;;;7.15;4.30;;;;;;;7.72;44.55;99238.53;6153225;23;20010;-87
2023/03/31 01:37:58;;;;;;;9.10;4.43;;;;;;;7.80;44.45;99246.13;6152687;23;20006;-87
2023/03/31 01:41:03;;;;;;;7.45;4.57;;;;;;;7.72;43.80;99227.81;6128136;23;20080;-87
2023/03/31 01:43:29;;;;;;;10.27;6.10;;;;;;;7.72;44.58;99241.22;6070333;23;20038;-87
2023/03/31 01:46:01;;;;;;;9.90;5.68;;;;;;;7.81;44.06;99237.00;6116512;23;20009;-87
2023/03/31 01:48:53;;;;;;;10.82;4.80;;;;;;;7.94;43.82;99230.41;6103713;23;20009;-87
2023/03/31 01:51:25;;;;;;;10.25;5.25;;;;;;;8.01;43.50;99222.16;6104784;23;20018;-87
2023/03/31 01:54:02;;;;;;;8.85;5.63;;;;;;;7.97;43.75;99219.19;6102244;23;20072;-86
2023/03/31 01:56:36;;;;;;;7.60;4.75;;;;;;;8.00;43.62;99225.91;6103675;23;20002;-87
2023/03/31 01:59:07;;;;;;;7.53;4.20;;;;;;;8.06;43.77;99225.69;6103774;23;20016;-86
2023/03/31 02:01:59;;;;;;;9.10;4.32;;;;;;;8.21;43.85;99234.94;6102936;23;20001;-87
2023/03/31 02:04:33;;;;;;;7.40;3.80;;;;;;;8.08;43.95;99204.00;6102335;23;20072;-87
2023/03/31 02:07:03;;;;;;;6.22;3.83;;;;;;;8.17;43.82;99209.69;6102973;23;20500;-87
2023/03/31 02:09:32;;;;;;;5.82;3.58;;;;;;;8.12;44.38;99206.97;6101803;23;20060;-87
2023/03/31 02:11:58;;;;;;;8.00;4.00;;;;;;;8.09;43.77;99194.88;6077803;23;20002;-87
2023/03/31 02:14:25;;;;;;;6.78;4.00;;;;;;;8.23;43.57;99201.41;6078513;23;20084;-88
2023/03/31 02:16:56;;;;;;;4.32;2.45;;;;;;;8.30;43.16;99195.84;6102443;23;20526;-87
2023/03/31 02:19:22;;;;;;;4.80;2.90;;;;;;;8.23;44.12;99200.63;6103747;23;20349;-88
2023/03/31 02:21:50;;;;;;;5.68;2.95;;;;;;;8.31;44.78;99205.50;6102127;23;20009;-87
2023/03/31 02:24:17;;;;;;;4.97;3.03;;;;;;;8.24;44.76;99197.69;6103370;23;20012;-87
2023/03/31 02:26:48;;;;;;;4.45;2.30;;;;;;;8.30;44.72;99191.28;6101247;23;20054;-87
2023/03/31 02:29:13;;;;;;;4.60;2.20;;;;;;;8.24;44.68;99200.38;6102950;23;19998;-87
2023/03/31 02:31:51;;;;;;;3.45;2.30;;;;;;;8.28;44.65;99206.03;6102151;23;20009;-87
2023/03/31 02:34:16;;;;;;;2.88;1.80;;;;;;;8.20;44.42;99195.78;6150890;23;20101;-88
2023/03/31 02:36:42;;;;;;;6.15;2.30;;;;;;;8.09;44.31;99198.38;6101707;23;20004;-87
2023/03/31 02:39:08;;;;;;;7.78;2.88;;;;;;;8.09;44.51;99202.91;6101080;23;19998;-87
2023/03/31 02:41:34;;;;;;;4.35;2.10;;;;;;;8.01;44.35;99206.06;6101811;23;20002;-89
2023/03/31 02:44:00;;;;;;;4.97;2.53;;;;;;;7.99;44.38;99200.16;6102468;23;20144;-88
2023/03/31 02:46:25;;;;;;;4.43;2.15;;;;;;;7.90;44.07;99197.13;6101857;23;20001;-87
2023/03/31 02:48:53;;;;;;;4.65;2.80;;;;;;;7.97;43.97;99194.25;6078065;23;20004;-88
2023/03/31 02:51:48;;;;;;;7.03;2.80;;;;;;;8.00;44.41;99204.47;6044082;23;1373210;-89
2023/03/31 02:54:41;;;;;;;3.10;2.00;;;;;;;7.93;44.69;99215.41;6121133;23;20541;-87
2023/03/31 02:57:19;;;;;;;4.85;2.28;;;;;;;7.96;44.64;99212.19;6128300;23;20455;-89
2023/03/31 03:00:18;;;;;;;5.95;2.75;;;;;;;7.93;44.75;99202.00;6151598;23;20013;-87
2023/03/31 03:03:03;;;;;;;3.97;2.65;;;;;;;7.93;44.57;99202.00;6117014;23;20002;-87
2023/03/31 03:06:01;;;;;;;6.75;3.30;;;;;;;8.00;45.05;99207.16;6103965;23;20021;-87
2023/03/31 03:08:34;;;;;;;7.43;3.30;;;;;;;8.04;44.89;99201.00;6090599;23;20009;-87
2023/03/31 03:11:24;;;;;;;5.40;2.92;;;;;;;8.23;44.62;99205.97;6103066;23;20397;-90
2023/03/31 03:14:22;;;;;;;6.50;3.60;;;;;;;8.31;44.69;99200.16;6152125;23;20005;-87
2023/03/31 03:16:52;;;;;;;6.25;3.25;;;;;;;8.37;44.69;99192.94;6126970;23;20002;-87
2023/03/31 03:19:21;;;;;;;7.68;3.25;;;;;;;8.35;44.58;99197.75;6078735;23;20033;-88
2023/03/31 03:21:47;;;;;;;6.85;3.25;;;;;;;8.35;45.00;99197.75;6127065;23;20425;-88
2023/03/31 03:24:16;;;;;;;6.15;2.80;;;;;;;8.48;43.79;99210.75;6103097;23;20004;-87
2023/03/31 03:26:47;;;;;;;8.95;3.08;;;;;;;8.48;43.33;99202.69;6103777;23;20061;-87
2023/03/31 03:29:13;;;;;;;6.93;3.03;;;;;;;8.53;43.08;99194.69;6102184;23;20002;-87
2023/03/31 03:31:41;;;;;;;8.25;3.00;;;;;;;8.48;43.80;99195.44;6079974;23;20405;-87
2023/03/31 03:34:08;;;;;;;6.72;3.15;;;;;;;8.65;43.64;99207.91;6103637;23;20006;-87
2023/03/31 03:36:36;;;;;;;7.90;3.53;;;;;;;8.59;43.39;99220.50;6079486;23;20029;-88
2023/03/31 03:39:02;;;;;;;8.77;3.80;;;;;;;8.39;43.93;99206.91;6103063;23;20060;-87
2023/03/31 03:41:28;;;;;;;7.07;3.28;;;;;;;8.37;44.88;99220.56;6079102;23;20037;-88
2023/03/31 03:43:53;;;;;;;8.27;3.97;;;;;;;8.32;44.93;99204.44;6077390;23;19998;-87
2023/03/31 03:46:19;;;;;;;9.20;3.58;;;;;;;8.34;45.65;99207.66;6102899;23;20013;-88
2023/03/31 03:48:45;;;;;;;13.93;3.67;;;;;;;8.30;46.41;99214.63;6078875;23;20005;-88
2023/03/31 03:51:10;;;;;;;10.80;2.70;;;;;;;8.11;46.76;99219.56;6102824;23;20029;-88
2023/03/31 03:53:36;;;;;;;3.20;2.13;;;;;;;8.02;46.89;99213.88;6079064;23;20499;-87
2023/03/31 03:56:01;;;;;;;13.82;2.88;;;;;;;8.08;47.07;99222.78;6079332;23;20006;-87
2023/03/31 03:58:27;;;;;;;9.10;3.40;;;;;;;8.05;46.52;99212.53;6101498;23;20014;-87
2023/03/31 04:00:52;;;;;;;15.63;4.85;;;;;;;8.04;46.69;99222.47;6103232;23;20009;-86
2023/03/31 04:03:18;;;;;;;10.43;3.63;;;;;;;8.00;47.05;99228.59;6102352;23;20004;-87
2023/03/31 04:05:43;;;;;;;8.07;2.95;;;;;;;8.05;46.70;99231.31;6102343;23;20417;-88
2023/03/31 04:08:09;;;;;;;7.40;3.03;;;;;;;8.04;47.51;99230.50;6102816;23;20009;-89
2023/03/31 04:10:38;;;;;;;7.50;3.40;;;;;;;7.98;47.54;99231.53;6078500;23;20333;-89
2023/03/31 04:13:03;;;;;;;8.35;3.38;;;;;;;8.00;47.76;99236.63;6101621;23;20033;-87
2023/03/31 04:15:29;;;;;;;28.83;13.00;;;;;;;8.06;47.36;99246.34;6077442;23;19998;-88
2023/03/31 04:17:56;;;;;;;25.27;9.60;;;;;;;8.13;47.33;99244.25;6054914;23;20009;-87
2023/03/31 04:20:26;;;;;;;17.17;8.13;;;;;;;7.89;47.57;99241.09;6102823;23;20049;-88
2023/03/31 04:22:58;;;;;;;12.50;4.20;;;;;;;7.88;47.31;99240.28;6104648;23;20002;-90
2023/03/31 04:25:29;;;;;;;9.35;5.72;;;;;;;8.00;47.04;99245.47;6102946;23;19998;-88
2023/03/31 04:27:54;;;;;;;12.27;4.75;;;;;;;8.00;47.49;99244.69;6079260;23;20022;-87
2023/03/31 04:30:29;;;;;;;12.43;4.50;;;;;;;7.91;46.30;99247.03;6102081;23;20041;-87
2023/03/31 04:32:59;;;;;;;15.93;5.05;;;;;;;8.07;46.75;99253.31;6081690;23;20032;-88
2023/03/31 04:35:26;;;;;;;6.78;4.15;;;;;;;8.14;46.65;99266.53;6104548;23;20001;-89
2023/03/31 04:37:57;;;;;;;15.77;4.82;;;;;;;8.05;47.27;99275.03;6104343;23;20010;-89
2023/03/31 04:40:24;;;;;;;19.00;4.80;;;;;;;7.95;48.19;99250.81;6105722;23;20037;-88
2023/03/31 04:42:50;;;;;;;16.80;5.05;;;;;;;7.99;49.02;99256.44;6080102;23;20002;-88
2023/03/31 04:45:15;;;;;;;7.63;4.28;;;;;;;8.16;50.52;99267.09;6079872;23;20005;-88
2023/03/31 04:47:41;;;;;;;10.77;5.07;;;;;;;8.09;50.59;99260.06;6080127;23;19990;-88
2023/03/31 04:50:07;;;;;;;10.10;3.90;;;;;;;8.09;49.47;99262.75;6108867;23;20028;-89
2023/03/31 04:52:32;;;;;;;10.43;4.38;;;;;;;8.19;48.51;99267.38;6083989;23;20009;-89
2023/03/31 04:54:58;;;;;;;6.70;4.05;;;;;;;7.98;50.25;99257.53;6106489;23;20085;-86
2023/03/31 04:57:23;;;;;;;6.10;4.30;;;;;;;7.96;49.21;99268.50;6105584;23;20299;-87
2023/03/31 04:59:49;;;;;;;8.75;4.25;;;;;;;8.07;48.36;99262.19;6106474;23;20005;-87
2023/03/31 05:02:22;;;;;;;6.75;3.70;;;;;;;8.07;50.01;99270.22;6106046;23;20009;-86
2023/03/31 05:04:47;;;;;;;5.15;3.60;;;;;;;8.06;48.60;99243.66;6084615;23;20006;-89
2023/03/31 05:07:27;;;;;;;;;;;;;;;;;;;;;
2023/03/31 05:09:52;;;;;;;5.97;3.67;;;;;;;8.27;47.15;99245.44;6113794;23;20040;-91
2023/03/31 05:12:18;;;;;;;8.02;3.40;;;;;;;8.49;46.38;99242.69;6106945;23;20005;-89
2023/03/31 05:14:51;;;;;;;8.88;4.13;;;;;;;8.68;47.26;99256.50;6106109;23;20024;-90
2023/03/31 05:17:23;;;;;;;9.27;3.58;;;;;;;8.67;47.03;99222.69;6091987;23;20017;-90
2023/03/31 05:19:50;;;;;;;9.75;3.63;;;;;;;8.99;45.00;99258.56;6114483;23;20013;-92
2023/03/31 05:22:19;;;;;;;6.90;3.38;;;;;;;9.06;44.11;99243.00;6087993;23;20008;-87
2023/03/31 05:24:45;;;;;;;10.02;3.25;;;;;;;9.23;45.38;99248.19;6110509;23;19998;-87
2023/03/31 05:27:19;;;;;;;8.70;4.45;;;;;;;9.38;46.94;99264.38;6109734;23;19994;-89
2023/03/31 05:29:45;;;;;;;39.55;23.17;;;;;;;9.22;48.29;99233.16;6133212;23;20093;-91
2023/03/31 05:32:10;;;;;;;13.23;6.50;;;;;;;9.36;48.21;99247.72;6107974;23;20002;-90
2023/03/31 05:34:39;;;;;;;13.05;5.07;;;;;;;9.50;47.42;99261.44;6084880;23;20029;-90
2023/03/31 05:37:09;;;;;;;9.02;4.90;;;;;;;9.47;49.05;99252.03;6097077;23;20006;-96
2023/03/31 05:39:37;;;;;;;6.97;4.07;;;;;;;9.47;47.98;99240.50;6087178;23;20071;-95
2023/03/31 05:42:04;;;;;;;7.70;5.03;;;;;;;9.56;47.13;99249.66;6112167;23;19998;-94
2023/03/31 05:44:35;;;;;;;14.43;5.82;;;;;;;9.54;48.42;99222.22;6120403;23;20033;-95
2023/03/31 05:47:04;;;;;;;11.13;4.65;;;;;;;9.50;49.10;99221.97;6143298;23;19998;-96
2023/03/31 05:52:29;;;;;;;36.92;16.50;;;;;;;9.65;49.80;99240.00;6203883;23;20013;-96
2023/03/31 05:54:55;;;;;;;13.00;5.82;;;;;;;9.36;50.97;99215.47;6131276;23;20040;-94
2023/03/31 05:57:20;;;;;;;9.57;5.45;;;;;;;9.35;51.11;99210.34;6150005;23;20051;-93
2023/03/31 05:59:47;;;;;;;21.95;8.50;;;;;;;9.26;51.00;99212.75;6124179;23;20001;-93
2023/03/31 06:05:54;;;;;;;8.48;5.80;;;;;;;9.43;54.32;99201.78;6184538;23;20036;-89
2023/03/31 06:08:20;;;;;;;16.40;8.82;;;;;;;9.74;57.42;99244.88;6117969;23;20001;-90
2023/03/31 06:11:11;;;;;;;11.30;6.15;;;;;;;9.54;56.01;99218.75;6143905;23;20005;-90
2023/03/31 06:14:06;;;;;;;10.65;6.30;;;;;;;9.39;54.96;99198.00;6173532;23;20063;-93
2023/03/31 06:16:53;;;;;;;8.48;5.82;;;;;;;9.55;56.36;99220.38;6142996;23;20032;-93
2023/03/31 06:19:18;;;;;;;11.07;6.63;;;;;;;9.56;58.78;99238.09;6155246;23;20009;-90
2023/03/31 06:21:44;;;;;;;7.70;5.07;;;;;;;9.31;59.18;99226.19;6150789;23;19981;-93
2023/03/31 06:24:09;;;;;;;11.88;5.38;;;;;;;9.33;58.87;99199.06;6149985;23;20050;-92
2023/03/31 06:26:38;;;;;;;8.57;5.40;;;;;;;9.70;56.77;99231.13;6145468;23;20001;-92
2023/03/31 06:29:07;;;;;;;15.50;5.82;;;;;;;9.57;56.85;99205.59;6146293;23;19997;-94
2023/03/31 06:31:33;;;;;;;9.63;5.97;;;;;;;9.75;58.45;99233.03;6149837;23;20401;-93
2023/03/31 06:34:03;;;;;;;11.80;7.13;;;;;;;9.79;57.48;99228.72;6147024;23;20008;-90
2023/03/31 06:37:27;;;;;;;10.88;6.22;;;;;;;9.67;57.73;99197.53;6146458;23;20005;-91
2023/03/31 06:39:53;;;;;;;17.02;9.57;;;;;;;9.81;57.62;99202.38;6030989;23;20043;-90
2023/03/31 06:42:18;;;;;;;12.43;6.90;;;;;;;10.03;57.46;99210.22;6001285;23;20003;-91
2023/03/31 06:44:44;;;;;;;13.73;7.82;;;;;;;9.97;56.02;99187.88;6073227;23;20007;-89
2023/03/31 06:47:09;;;;;;;10.15;6.15;;;;;;;10.14;57.70;99198.34;6143515;23;20096;-92
2023/03/31 06:49:46;;;;;;;20.30;12.32;;;;;;;10.51;56.36;99229.56;6121833;23;20065;-92
2023/03/31 06:52:15;;;;;;;11.90;6.50;;;;;;;10.42;55.82;99201.63;6120730;23;20001;-89
2023/03/31 06:54:41;;;;;;;8.98;5.75;;;;;;;10.51;55.35;99214.22;6141119;23;20056;-89
2023/03/31 06:57:06;;;;;;;9.18;5.88;;;;;;;10.45;57.11;99207.25;6140096;23;20037;-88
2023/03/31 06:59:32;;;;;;;11.48;6.97;;;;;;;10.46;57.39;99202.69;6140427;23;20051;-87
2023/03/31 07:01:57;;;;;;;14.20;7.63;;;;;;;10.67;59.97;99236.56;6141112;23;20001;-90
2023/03/31 07:04:23;;;;;;;15.27;7.82;;;;;;;10.43;61.49;99213.97;6143303;23;20001;-92
2023/03/31 07:06:51;;;;;;;10.45;6.40;;;;;;;10.42;59.62;99198.91;6144410;23;20009;-92
2023/03/31 07:09:17;;;;;;;11.15;5.97;;;;;;;10.61;59.18;99202.63;6117466;23;20004;-91
2023/03/31 07:11:48;;;;;;;11.02;7.45;;;;;;;10.61;55.79;99183.78;6119553;23;20005;-90
2023/03/31 07:14:13;;;;;;;10.60;6.93;;;;;;;10.81;57.34;99207.19;6143333;23;20055;-92
2023/03/31 07:16:39;;;;;;;10.13;6.55;;;;;;;10.91;56.98;99187.47;6146452;23;19993;-88
2023/03/31 07:19:09;;;;;;;12.05;6.95;;;;;;;10.84;60.27;99186.97;6140735;23;20051;-90
2023/03/31 07:21:36;;;;;;;11.63;6.63;;;;;;;10.58;63.23;99181.63;6144079;23;20012;-89
2023/03/31 07:24:34;;;;;;;;;;;;;;;;;;;;;
2023/03/31 07:27:13;;;;;;;;;;;;;;;;;;;;;
2023/03/31 07:29:41;;;;;;;16.67;10.07;;;;;;;10.62;63.07;99153.09;6150654;23;20035;-89
2023/03/31 07:32:06;;;;;;;23.48;15.57;;;;;;;10.89;62.86;99177.00;6142268;23;20001;-89
2023/03/31 07:34:32;;;;;;;16.60;10.27;;;;;;;10.86;61.98;99163.25;6139127;23;20005;-89
2023/03/31 07:36:58;;;;;;;17.67;11.38;;;;;;;11.08;61.33;99190.66;6138338;23;20055;-89
2023/03/31 07:39:36;;;;;;;12.15;8.60;;;;;;;10.92;58.69;99149.47;6139314;23;20009;-90
2023/03/31 07:42:03;;;;;;;14.65;8.80;;;;;;;11.12;58.52;99178.22;6162403;23;20005;-89
2023/03/31 07:44:28;;;;;;;18.02;11.43;;;;;;;10.97;59.24;99142.47;6140226;23;20102;-89
2023/03/31 07:46:54;;;;;;;37.33;21.45;;;;;;;11.16;58.65;99161.50;6116302;23;20001;-90
2023/03/31 07:49:20;;;;;;;19.05;10.32;;;;;;;11.05;60.69;99149.97;6137952;23;20008;-90
2023/03/31 07:52:24;;;;;;;21.55;10.45;;;;;;;11.10;62.20;99137.28;6115588;23;19993;-90
2023/03/31 07:54:50;;;;;;;20.13;9.55;;;;;;;11.20;62.64;99136.41;6102895;23;20089;-93
2023/03/31 07:57:19;;;;;;;21.67;15.23;;;;;;;11.13;62.99;99125.13;6099759;23;20014;-93
2023/03/31 07:59:53;;;;;;;21.42;10.63;;;;;;;11.21;63.48;99112.97;6152911;23;20005;-89
2023/03/31 08:02:18;;;;;;;17.67;9.73;;;;;;;11.25;62.82;99130.19;6143662;23;20061;-90
2023/03/31 08:04:44;;;;;;;17.33;9.20;;;;;;;11.36;62.16;99118.25;6141108;23;20012;-89
2023/03/31 08:07:18;;;;;;;18.33;10.40;;;;;;;11.71;62.58;99146.06;6139974;23;19997;-93
2023/03/31 08:09:49;;;;;;;19.23;10.25;;;;;;;12.03;61.43;99150.94;6153012;23;20034;-92
2023/03/31 08:12:14;;;;;;;17.53;9.10;;;;;;;12.23;60.09;99146.47;6169972;23;20100;-92
2023/03/31 08:14:40;;;;;;;16.63;9.50;;;;;;;12.28;60.39;99143.69;6144151;23;20069;-92
2023/03/31 08:17:12;;;;;;;15.07;9.27;;;;;;;12.37;59.90;99124.97;6144895;23;20001;-90
2023/03/31 08:19:38;;;;;;;14.63;9.38;;;;;;;12.47;59.45;99116.78;6144433;23;20480;-89
2023/03/31 08:22:09;;;;;;;16.70;9.98;;;;;;;12.44;59.08;99098.44;6142273;23;20067;-89
2023/03/31 08:24:35;;;;;;;15.37;8.80;;;;;;;12.58;59.31;99122.88;6141167;23;20044;-91
2023/03/31 08:27:00;;;;;;;13.70;8.15;;;;;;;12.51;57.84;99115.09;6142841;23;20011;-91
2023/03/31 08:29:28;;;;;;;12.18;7.53;;;;;;;12.89;58.06;99131.41;6147974;23;20005;-90
2023/03/31 08:31:54;;;;;;;15.10;8.50;;;;;;;12.74;57.43;99089.16;6144042;23;19997;-92
2023/03/31 08:34:26;;;;;;;11.65;7.75;;;;;;;13.12;57.16;99111.66;6146117;23;20067;-91
2023/03/31 08:36:55;;;;;;;20.50;9.82;;;;;;;13.31;56.37;99111.66;6146573;23;19977;-88
2023/03/31 08:39:29;;;;;;;15.32;8.00;;;;;;;13.40;56.65;99092.88;6147564;23;20356;-92
2023/03/31 08:42:21;;;;;;;35.33;17.63;;;;;;;13.32;55.83;99088.13;6147402;23;19996;-91
2023/03/31 08:44:58;;;;;;;10.98;6.60;;;;;;;13.05;55.57;99100.41;6171501;23;20432;-91
2023/03/31 08:47:29;;;;;;;13.38;9.30;;;;;;;13.09;57.55;99082.50;6148106;23;19997;-95
2023/03/31 08:50:06;;;;;;;12.90;7.35;;;;;;;13.01;55.94;99075.06;6149245;23;20092;-91
2023/03/31 08:52:44;;;;;;;14.32;8.13;;;;;;;13.14;56.47;99057.28;6150434;23;20020;-92
2023/03/31 08:55:23;;;;;;;13.50;6.15;;;;;;;13.20;55.13;99058.00;6147818;23;20000;-90
2023/03/31 08:58:39;;;;;;;9.82;5.13;;;;;;;13.49;54.95;99083.00;6125158;23;20073;-91
2023/03/31 09:01:54;;;;;;;9.82;5.60;;;;;;;13.61;54.15;99041.97;6173108;23;20059;-90
2023/03/31 09:05:04;;;;;;;12.43;5.82;;;;;;;13.82;54.37;99066.78;6123952;23;20360;-91
2023/03/31 09:07:46;;;;;;;10.45;5.70;;;;;;;14.00;53.00;99056.97;6172204;23;20008;-92
2023/03/31 09:10:11;;;;;;;7.45;5.07;;;;;;;14.25;51.83;99049.47;6170527;23;20000;-91
2023/03/31 09:13:13;;;;;;;9.18;5.57;;;;;;;14.44;51.82;99049.38;6167149;23;20067;-89
2023/03/31 09:16:07;;;;;;;9.80;6.03;;;;;;;14.65;51.85;99037.06;6165902;23;20364;-89
2023/03/31 09:18:39;;;;;;;8.20;6.00;;;;;;;14.61;52.72;99025.22;6167165;23;20009;-90
2023/03/31 09:21:20;;;;;;;13.10;6.32;;;;;;;14.55;53.53;99012.84;6144679;23;20008;-89
2023/03/31 09:23:50;;;;;;;10.55;6.75;;;;;;;14.50;54.19;99007.53;6141898;23;20004;-89
2023/03/31 09:26:51;;;;;;;11.23;7.32;;;;;;;14.73;54.10;99028.22;6114892;23;20012;-91
2023/03/31 09:29:28;;;;;;;54.72;28.88;;;;;;;14.53;54.59;98994.19;6132498;23;20099;-94
2023/03/31 09:32:02;;;;;;;12.85;7.97;;;;;;;14.80;52.92;99010.72;6143963;23;20001;-92
2023/03/31 09:34:36;;;;;;;11.25;7.53;;;;;;;14.70;52.11;98982.75;6143176;23;20080;-90
2023/03/31 09:37:04;;;;;;;10.88;7.13;;;;;;;14.90;52.76;98996.91;6142159;23;20001;-89
2023/03/31 09:39:29;;;;;;;9.48;6.30;;;;;;;14.94;51.88;98970.81;6144485;23;20008;-89
2023/03/31 09:44:49;;;;;;;10.95;4.78;;;;;;;15.34;51.94;98950.03;6151706;23;20001;-91
2023/03/31 09:47:41;;;;;;;6.88;4.78;;;;;;;15.77;50.69;98954.09;6145536;23;20003;-92
2023/03/31 09:50:08;;;;;;;9.38;5.00;;;;;;;15.94;50.59;98943.31;6164190;23;20001;-91
2023/03/31 09:52:43;;;;;;;10.57;5.15;;;;;;;16.10;50.33;98949.13;6115555;23;20004;-90
2023/03/31 09:55:38;;;;;;;9.50;5.35;;;;;;;16.55;50.02;98954.31;6142571;23;20024;-89
2023/03/31 09:58:07;;;;;;;13.68;6.30;;;;;;;16.62;50.21;98923.94;6116699;23;20104;-90
2023/03/31 10:00:57;;;;;;;14.82;6.35;;;;;;;17.04;48.06;98932.44;6163956;23;20067;-91
2023/03/31 10:03:23;;;;;;;11.27;5.85;;;;;;;17.19;47.12;98916.72;6163135;23;20001;-88
2023/03/31 10:06:11;;;;;;;9.05;5.05;;;;;;;17.49;45.40;98917.59;6140867;23;20063;-89
2023/03/31 10:09:34;;;;;;;5.40;3.13;;;;;;;17.73;44.05;98930.63;6156384;23;20001;-91
2023/03/31 10:12:18;;;;;;;11.32;3.45;;;;;;;17.53;42.18;98922.03;6181366;23;20004;-91
2023/03/31 10:14:48;;;;;;;5.25;3.30;;;;;;;17.53;43.26;98932.13;6140878;23;20004;-88
2023/03/31 10:17:38;;;;;;;7.93;3.55;;;;;;;17.53;42.15;98923.97;6114135;23;20001;-90
2023/03/31 10:20:11;;;;;;;4.53;3.10;;;;;;;17.49;41.88;98923.84;6164090;23;20083;-88
2023/03/31 10:22:43;;;;;;;6.65;3.15;;;;;;;17.43;42.24;98938.75;6154295;23;20105;-87
2023/03/31 10:25:53;;;;;;;6.85;3.35;;;;;;;17.27;43.58;98948.56;6147249;23;20281;-90
2023/03/31 10:28:21;;;;;;;5.22;2.80;;;;;;;17.16;44.19;98938.00;6172063;23;20023;-89
2023/03/31 10:31:02;;;;;;;5.72;2.97;;;;;;;17.03;43.87;98930.03;6116420;23;20005;-91
2023/03/31 10:33:43;;;;;;;4.65;3.15;;;;;;;17.14;44.88;98950.31;6138845;23;20003;-89
2023/03/31 10:36:22;;;;;;;4.60;2.75;;;;;;;16.85;44.43;98919.19;6147676;23;20075;-92
2023/03/31 10:38:55;;;;;;;6.13;3.50;;;;;;;16.86;44.75;98915.31;6116157;23;20005;-90
2023/03/31 10:41:32;;;;;;;15.45;9.23;;;;;;;16.70;44.51;98925.84;6166734;23;20016;-91
2023/03/31 10:44:10;;;;;;;5.32;3.20;;;;;;;16.66;44.58;98911.28;6163550;23;20004;-92
2023/03/31 10:46:51;;;;;;;4.95;3.38;;;;;;;16.59;44.97;98902.81;6188434;23;20012;-89
2023/03/31 10:49:27;;;;;;;6.10;3.50;;;;;;;16.71;44.28;98915.78;6146585;23;20068;-91
2023/03/31 10:52:04;;;;;;;7.65;3.03;;;;;;;16.75;43.75;98924.91;6165139;23;20031;-92
2023/03/31 10:54:37;;;;;;;9.30;3.25;;;;;;;16.74;43.48;98920.56;6146570;23;20067;-95
2023/03/31 10:57:38;;;;;;;6.80;3.40;;;;;;;16.52;44.09;98897.88;6147943;23;20021;-96
2023/03/31 11:01:01;;;;;;;5.65;2.70;;;;;;;16.68;43.35;98913.69;6152863;23;20036;-92
2023/03/31 11:04:24;;;;;;;6.13;3.17;;;;;;;16.60;43.67;98918.03;6105747;23;20006;-88
2023/03/31 11:07:18;;;;;;;3.40;2.55;;;;;;;16.73;43.40;98914.34;6012999;23;20446;-90
2023/03/31 11:09:57;;;;;;;6.50;3.80;;;;;;;16.74;43.52;98887.94;6161984;23;20033;-91
2023/03/31 11:15:47;;;;;;;4.30;3.10;;;;;;;17.13;42.40;98897.03;6014376;23;20089;-91
2023/03/31 11:18:12;;;;;;;5.00;3.40;;;;;;;17.43;42.22;98894.38;6081937;23;20006;-90
2023/03/31 11:20:43;;;;;;;5.72;3.58;;;;;;;17.55;42.13;98870.78;6107518;23;20021;-91
2023/03/31 11:23:33;;;;;;;4.63;3.10;;;;;;;17.88;41.52;98888.47;6106279;23;20049;-90
2023/03/31 11:26:06;;;;;;;5.32;3.08;;;;;;;17.99;41.00;98881.50;6109847;23;20001;-89
2023/03/31 11:29:02;;;;;;;4.70;3.20;;;;;;;17.94;40.63;98862.63;6060136;23;20010;-88
2023/03/31 11:31:37;;;;;;;11.43;3.20;;;;;;;18.04;40.47;98866.91;6113850;23;20001;-90
2023/03/31 11:34:46;;;;;;;;;;;;;;;;;;;;;
2023/03/31 11:37:24;;;;;;;4.40;2.50;;;;;;;18.55;41.04;98854.81;6107490;23;20033;-88
2023/03/31 11:40:28;;;;;;;3.60;2.35;;;;;;;18.72;40.06;98853.84;6105426;23;20016;-90
2023/03/31 11:43:31;;;;;;;7.38;3.15;;;;;;;18.52;39.19;98843.78;6105716;23;20005;-90
2023/03/31 11:46:24;;;;;;;4.50;2.58;;;;;;;18.65;38.61;98863.69;6087801;23;20005;-88
2023/03/31 11:49:23;;;;;;;3.20;2.15;;;;;;;18.50;38.88;98830.47;6163221;23;19997;-89
2023/03/31 11:52:14;;;;;;;4.55;2.38;;;;;;;18.74;38.59;98846.13;6165057;23;19994;-88
2023/03/31 11:54:57;;;;;;;4.93;2.92;;;;;;;18.81;38.95;98834.69;6164994;23;20421;-93
2023/03/31 11:57:50;;;;;;;4.82;3.08;;;;;;;18.70;38.66;98830.78;6165734;23;20001;-90
2023/03/31 12:00:25;;;;;;;3.60;2.00;;;;;;;18.59;38.19;98835.84;6166132;23;20039;-94
2023/03/31 12:03:24;;;;;;;5.07;2.83;;;;;;;18.60;39.00;98829.25;6167394;23;20005;-89
2023/03/31 12:13:28;;;;;;;2.80;2.07;;;;;;;18.56;39.12;98793.69;6106560;23;20072;-94
2023/03/31 12:16:28;;;;;;;8.20;2.20;;;;;;;18.69;39.39;98819.06;6022240;23;20244;-91
2023/03/31 12:19:23;;;;;;;4.70;1.80;;;;;;;18.53;38.81;98796.28;6046271;23;20351;-94
2023/03/31 12:25:51;;;;;;;4.10;1.55;;;;;;;18.76;39.09;98796.72;6022713;23;20078;-93
2023/03/31 12:28:17;;;;;;;4.28;1.77;;;;;;;18.81;38.81;98801.97;6055395;23;20432;-94
2023/03/31 12:33:27;;;;;;;2.85;1.80;;;;;;;18.78;38.82;98786.25;6166952;23;20017;-93
2023/03/31 12:36:11;;;;;;;2.53;1.55;;;;;;;18.95;37.84;98764.25;6145875;23;20005;-91
2023/03/31 12:39:02;;;;;;;3.53;1.70;;;;;;;19.23;37.68;98784.63;6149430;23;20008;-93
2023/03/31 12:41:39;;;;;;;2.45;1.38;;;;;;;19.48;36.66;98780.75;6174522;23;20002;-92